ESMS/MMX METAR and TAF weather

Enter ICAO airport designator
Station Type Date Time Source
ESMS METAR 2018/07/21 11:20 UTC NOAA

ESMS 211120Z 30013KT CAVOK 24/10 Q1012


Station Type Date Time Source
ESMS Decoded METAR 2018/07/21 11:20 UTC NOAA

Malmo / Sturup, Sweden (ESMS) 55-33N 013-22E
Jul 21, 2018 - 07:20 AM EDT / 2018.07.21 1120 UTC
Wind: from the WNW (300 degrees) at 15 MPH (13 KT):0
Visibility: greater than 7 mile(s):0
Temperature: 75 F (24 C)
Dew Point: 50 F (10 C)
Relative Humidity: 41%
Pressure (altimeter): 29.88 in. Hg (1012 hPa)
ob: ESMS 211120Z 30013KT CAVOK 24/10 Q1012
cycle: 11

Station Type Date Time Source
ESMS TAF 2018/07/21 12:33 UTC NOAA

TAF ESMS 211100Z 2112/2212 31008KT CAVOK


Example: see airport list